Time;durP1;ratioP1;P1;durP2;ratioP2;P2;SDS_P1;SDS_P2;PMS_P1;PMS_P2;Temp;Humidity;BMP_temperature;BMP_pressure;BME280_temperature;BME280_humidity;BME280_pressure;Samples;Min_cycle;Max_cycle;Signal;HPM_P1;HPM_P2
2022/10/02 00:00:55;;;;;;;2.40;1.37;;;17.70;99.90;;;18.05;79.91;94716.00;5028139;28;20489;-56
2022/10/02 00:03:24;;;;;;;3.13;1.43;;;17.70;99.90;;;18.05;80.28;94718.66;5027616;28;20452;-56
2022/10/02 00:05:57;;;;;;;4.47;1.70;;;17.70;99.90;;;18.06;80.79;94711.50;5027783;28;21066;-55
2022/10/02 00:08:29;;;;;;;3.80;1.40;;;17.70;99.90;;;18.07;80.00;94707.84;5027777;28;20455;-54
2022/10/02 00:10:57;;;;;;;3.40;1.50;;;17.80;99.90;;;18.07;80.51;94707.84;5026712;28;20504;-54
2022/10/02 00:13:28;;;;;;;6.23;1.63;;;17.80;99.90;;;18.08;80.84;94712.16;5028062;28;20811;-57
2022/10/02 00:15:55;;;;;;;3.00;1.50;;;17.70;99.90;;;18.08;80.86;94723.63;5027798;28;20472;-54
2022/10/02 00:18:25;;;;;;;3.40;1.20;;;17.80;99.90;;;18.06;80.25;94717.66;5027510;28;20802;-56
2022/10/02 00:21:03;;;;;;;4.17;2.43;;;17.80;99.90;;;18.08;80.48;94720.94;5027370;28;20984;-55
2022/10/02 00:23:33;;;;;;;2.47;1.80;;;17.80;99.90;;;18.08;80.27;94720.13;5025359;28;20460;-56
2022/10/02 00:26:03;;;;;;;2.23;1.60;;;17.80;99.90;;;18.07;80.07;94723.81;5027250;28;20484;-55
2022/10/02 00:28:32;;;;;;;5.97;1.57;;;17.70;99.90;;;18.08;80.75;94725.47;5026930;28;20456;-57
2022/10/02 00:31:12;;;;;;;4.83;2.10;;;17.80;99.90;;;18.08;80.78;94728.13;5027367;28;20492;-56
2022/10/02 00:33:48;;;;;;;1.80;1.70;;;17.80;99.90;;;18.08;80.37;94736.09;5026233;28;20571;-57
2022/10/02 00:36:26;;;;;;;2.67;1.97;;;17.80;99.90;;;18.07;80.75;94734.44;5027229;28;20456;-57
2022/10/02 00:38:59;;;;;;;3.93;2.60;;;17.80;99.90;;;18.06;80.13;94738.97;5027319;28;20448;-55
2022/10/02 00:41:53;;;;;;;2.73;2.50;;;17.70;99.90;;;18.05;79.90;94741.81;5024710;28;20444;-56
2022/10/02 00:44:34;;;;;;;3.03;2.83;;;17.80;99.90;;;18.03;80.21;94744.66;5026626;28;20491;-54
2022/10/02 00:47:03;;;;;;;2.50;2.40;;;17.70;99.90;;;18.03;80.44;94743.81;5024355;28;20514;-54
2022/10/02 00:49:48;;;;;;;6.17;2.57;;;17.70;99.90;;;18.00;80.64;94750.38;5026567;28;20469;-57
2022/10/02 00:52:32;;;;;;;6.00;2.73;;;17.70;99.90;;;18.00;80.39;94752.19;5025224;28;20480;-56
2022/10/02 00:55:21;;;;;;;4.60;3.00;;;17.70;99.90;;;17.99;80.47;94755.88;5024893;28;20469;-57
2022/10/02 00:58:02;;;;;;;7.10;3.80;;;17.70;99.90;;;17.99;80.10;94758.53;5025636;28;20464;-55
2022/10/02 01:00:30;;;;;;;6.33;3.00;;;17.70;99.90;;;17.98;80.21;94767.53;5024225;28;20495;-58
2022/10/02 01:03:17;;;;;;;3.00;2.70;;;17.70;99.90;;;17.96;79.53;94750.94;5027368;28;20453;-55
2022/10/02 01:05:44;;;;;;;2.60;2.50;;;17.70;99.90;;;17.95;79.72;94757.25;5025749;28;20507;-57
2022/10/02 01:08:13;;;;;;;2.10;2.00;;;17.60;99.90;;;17.92;79.80;94769.94;5023331;28;20461;-56
2022/10/02 01:10:41;;;;;;;4.53;2.60;;;17.60;99.90;;;17.91;79.50;94778.09;5026184;28;20581;-55
2022/10/02 01:13:08;;;;;;;3.50;2.03;;;17.60;99.90;;;17.90;79.20;94776.44;5026776;28;20515;-55
2022/10/02 01:15:37;;;;;;;2.13;1.60;;;17.60;99.90;;;17.87;78.82;94766.97;5026141;28;20480;-56
2022/10/02 01:18:05;;;;;;;2.10;2.00;;;17.60;99.90;;;17.87;78.81;94768.81;5027423;28;20445;-56
2022/10/02 01:20:37;;;;;;;2.17;1.97;;;17.60;99.90;;;17.84;78.38;94772.66;5026371;28;20550;-56
2022/10/02 01:23:28;;;;;;;3.90;1.73;;;17.60;99.90;;;17.79;77.93;94768.91;5023056;28;20464;-53
2022/10/02 01:25:57;;;;;;;2.60;1.93;;;17.50;99.90;;;17.76;77.65;94770.09;5023811;28;20544;-56
2022/10/02 01:28:24;;;;;;;2.60;1.97;;;17.50;99.90;;;17.72;77.29;94771.47;5026690;28;20464;-56
2022/10/02 01:30:55;;;;;;;2.30;1.50;;;17.40;99.90;;;17.67;77.32;94771.22;5022294;28;20499;-56
2022/10/02 01:33:22;;;;;;;2.00;1.90;;;17.40;99.90;;;17.62;76.78;94768.31;5026510;28;21376;-56
2022/10/02 01:35:49;;;;;;;3.63;2.00;;;17.30;99.90;;;17.55;76.83;94779.69;5026051;28;20861;-55
2022/10/02 01:38:18;;;;;;;3.00;2.40;;;17.30;99.90;;;17.52;77.24;94772.09;5026290;28;20844;-52
2022/10/02 01:40:45;;;;;;;5.03;1.77;;;17.30;99.90;;;17.48;76.55;94775.28;5025740;28;20535;-54
2022/10/02 01:43:16;;;;;;;1.93;1.73;;;17.20;99.90;;;17.46;76.82;94787.94;5025951;28;20468;-55
2022/10/02 01:45:52;;;;;;;6.67;2.17;;;17.20;99.90;;;17.42;76.58;94787.47;5022415;28;20485;-55
2022/10/02 01:48:26;;;;;;;2.10;1.73;;;17.10;99.90;;;17.38;76.89;94786.19;5026258;28;20539;-56
2022/10/02 01:51:02;;;;;;;2.80;1.83;;;17.10;99.90;;;17.35;76.83;94794.53;5022775;28;20496;-56
2022/10/02 01:53:33;;;;;;;3.63;1.57;;;17.10;99.90;;;17.32;76.61;94802.88;5025711;28;20949;-55
2022/10/02 01:56:06;;;;;;;5.27;2.07;;;17.00;99.90;;;17.28;76.17;94794.44;5025526;28;20484;-56
2022/10/02 01:58:42;;;;;;;1.80;1.70;;;17.00;99.90;;;17.23;76.42;94793.34;5025841;28;20530;-56
2022/10/02 02:01:15;;;;;;;5.70;1.20;;;16.90;99.90;;;17.20;76.16;94798.03;5026069;28;20487;-55
2022/10/02 02:03:47;;;;;;;2.70;1.77;;;16.90;99.90;;;17.16;76.03;94796.72;5022297;28;20445;-57
2022/10/02 02:06:19;;;;;;;2.90;1.50;;;16.90;99.90;;;17.13;75.98;94802.41;5025653;28;20448;-54
2022/10/02 02:08:49;;;;;;;8.10;1.67;;;16.90;99.90;;;17.11;76.27;94812.41;5025431;28;20526;-53
2022/10/02 02:11:17;;;;;;;1.40;1.13;;;16.80;99.90;;;17.07;76.10;94813.78;5025195;28;20557;-56
2022/10/02 02:13:49;;;;;;;1.50;1.10;;;16.80;99.90;;;17.05;76.02;94826.41;5025558;28;20592;-57
2022/10/02 02:16:23;;;;;;;1.87;1.20;;;16.70;99.90;;;17.05;76.07;94823.75;5022591;28;20551;-55
2022/10/02 02:18:54;;;;;;;1.43;0.90;;;16.80;99.90;;;17.03;75.83;94839.88;5025440;28;20522;-56
2022/10/02 02:21:24;;;;;;;2.80;1.20;;;16.80;99.90;;;17.02;75.39;94838.25;5022047;28;21036;-54
2022/10/02 02:23:52;;;;;;;1.03;0.93;;;16.80;99.90;;;17.01;75.35;94851.72;5025371;28;21056;-57
2022/10/02 02:26:19;;;;;;;4.23;0.73;;;16.80;99.90;;;17.00;74.91;94852.72;5024954;28;20449;-57
2022/10/02 02:28:51;;;;;;;0.90;0.70;;;16.70;99.90;;;16.98;74.93;94852.88;5025783;28;20506;-56
2022/10/02 02:31:21;;;;;;;2.90;1.00;;;16.70;99.90;;;16.97;74.82;94859.19;5025782;28;20824;-57
2022/10/02 02:33:51;;;;;;;1.07;0.97;;;16.70;99.90;;;16.95;74.83;94852.44;5022195;28;20455;-54
2022/10/02 02:36:19;;;;;;;1.77;1.00;;;16.70;99.90;;;16.94;75.13;94861.41;5025680;28;21035;-54
2022/10/02 02:38:48;;;;;;;1.70;1.20;;;16.70;99.90;;;16.92;74.63;94864.25;5025417;28;20456;-54
2022/10/02 02:41:19;;;;;;;8.40;0.83;;;16.70;99.90;;;16.93;74.71;94865.06;5025378;28;20459;-57
2022/10/02 02:43:49;;;;;;;1.07;0.93;;;16.70;99.90;;;16.93;74.65;94862.41;5025155;28;20449;-56
2022/10/02 02:46:21;;;;;;;1.27;1.17;;;16.70;99.90;;;16.92;74.34;94858.09;5025519;28;20460;-56
2022/10/02 02:48:51;;;;;;;2.10;1.10;;;16.70;99.90;;;16.90;74.75;94862.75;5028826;28;20464;-56
2022/10/02 02:51:21;;;;;;;0.80;0.70;;;16.60;99.90;;;16.90;74.23;94860.09;5025347;28;20507;-55
2022/10/02 02:53:52;;;;;;;4.60;1.10;;;16.60;99.90;;;16.88;74.56;94862.13;5025586;28;20903;-56
2022/10/02 02:56:19;;;;;;;2.93;1.00;;;16.60;99.90;;;16.85;74.54;94872.06;5025282;28;20528;-56
2022/10/02 02:58:51;;;;;;;7.03;0.90;;;16.60;99.90;;;16.84;74.40;94873.06;5021599;28;20468;-54
2022/10/02 03:01:18;;;;;;;4.33;1.30;;;16.60;99.90;;;16.82;73.86;94869.78;5025124;28;20469;-56
2022/10/02 03:03:46;;;;;;;1.50;0.90;;;16.60;99.90;;;16.81;73.78;94884.03;5024666;28;20452;-55
2022/10/02 03:06:27;;;;;;;5.63;1.30;;;16.60;99.90;;;16.79;73.99;94886.06;5027845;28;20457;-56
2022/10/02 03:08:54;;;;;;;2.70;1.10;;;16.60;99.90;;;16.79;73.68;94885.22;5028891;28;20547;-56
2022/10/02 03:11:29;;;;;;;1.10;1.00;;;16.60;99.90;;;16.77;73.98;94890.72;5029077;28;20500;-56
2022/10/02 03:14:02;;;;;;;4.03;1.10;;;16.50;99.90;;;16.76;73.78;94896.19;5028747;28;20440;-55
2022/10/02 03:16:39;;;;;;;1.20;1.10;;;16.50;99.90;;;16.75;74.14;94908.66;5028815;28;20452;-57
2022/10/02 03:19:24;;;;;;;3.07;1.60;;;16.50;99.90;;;16.73;73.68;94910.69;5028783;28;20476;-56
2022/10/02 03:21:58;;;;;;;1.20;1.10;;;16.50;99.90;;;16.71;73.85;94920.63;5028509;28;20448;-56
2022/10/02 03:24:29;;;;;;;3.00;1.40;;;16.50;99.90;;;16.71;73.81;94925.94;5029079;28;20526;-56
2022/10/02 03:27:02;;;;;;;1.63;1.53;;;16.50;99.90;;;16.69;73.79;94933.28;5028549;28;20444;-55
2022/10/02 03:29:35;;;;;;;1.57;1.47;;;16.50;99.90;;;16.69;73.91;94929.81;5028977;28;20534;-53
2022/10/02 03:32:02;;;;;;;3.03;1.23;;;16.40;99.90;;;16.67;74.19;94922.00;5028404;28;20846;-56
2022/10/02 03:34:31;;;;;;;1.60;1.50;;;16.40;99.90;;;16.65;73.99;94918.69;5027832;28;21033;-57
2022/10/02 03:36:58;;;;;;;1.63;1.53;;;16.40;99.90;;;16.65;73.87;94935.47;5028342;28;20461;-56
2022/10/02 03:39:25;;;;;;;2.50;1.60;;;16.40;99.90;;;16.64;73.87;94931.16;5028337;28;20518;-57
2022/10/02 03:41:53;;;;;;;1.50;1.40;;;16.40;99.90;;;16.64;73.81;94927.66;5028493;28;20444;-56
2022/10/02 03:44:20;;;;;;;3.87;1.50;;;16.40;99.90;;;16.65;74.17;94926.66;5028242;28;20530;-62
2022/10/02 03:46:49;;;;;;;2.63;2.00;;;16.40;99.90;;;16.64;73.92;94925.03;5029252;28;20456;-56
2022/10/02 03:49:16;;;;;;;1.67;1.57;;;16.40;99.90;;;16.63;73.93;94940.09;5027709;28;20476;-56
2022/10/02 03:51:43;;;;;;;2.13;1.67;;;16.40;99.90;;;16.61;74.09;94951.91;5028308;28;20500;-57
2022/10/02 03:54:16;;;;;;;3.70;1.73;;;16.40;99.90;;;16.58;73.51;94953.09;5027741;28;20475;-54
2022/10/02 03:56:50;;;;;;;1.87;1.77;;;16.40;99.90;;;16.55;73.62;94960.59;5028180;28;20484;-56
2022/10/02 03:59:25;;;;;;;1.50;1.40;;;16.30;99.90;;;16.55;73.59;94966.72;5028014;28;20588;-57
2022/10/02 04:01:53;;;;;;;1.90;1.80;;;16.30;99.90;;;16.54;73.41;94969.53;5026711;28;20455;-55
2022/10/02 04:04:24;;;;;;;8.67;1.80;;;16.30;99.90;;;16.54;73.45;94967.72;5027190;28;20468;-55
2022/10/02 04:06:53;;;;;;;3.00;2.00;;;16.30;99.90;;;16.53;73.58;94967.88;5028291;28;20504;-54
2022/10/02 04:09:23;;;;;;;3.00;1.70;;;16.30;99.90;;;16.54;73.27;94977.50;5027839;28;20543;-55
2022/10/02 04:11:54;;;;;;;3.17;1.97;;;16.30;99.90;;;16.54;73.31;94974.84;5027642;28;20547;-57
2022/10/02 04:14:24;;;;;;;3.43;1.77;;;16.30;99.90;;;16.55;72.94;94984.50;5024970;28;20469;-56
2022/10/02 04:16:57;;;;;;;2.10;2.00;;;16.30;99.90;;;16.56;72.80;94991.44;5027973;28;20452;-56
2022/10/02 04:19:28;;;;;;;3.27;1.70;;;16.30;99.90;;;16.56;73.06;94986.13;5027763;28;21072;-55
2022/10/02 04:21:58;;;;;;;2.07;1.80;;;16.30;99.90;;;16.57;72.79;95003.72;5028177;28;20984;-56
2022/10/02 04:24:30;;;;;;;1.90;1.73;;;16.30;99.90;;;16.58;73.19;95005.38;5024224;28;20468;-54
2022/10/02 04:27:04;;;;;;;1.90;1.80;;;16.30;99.90;;;16.59;72.67;95005.22;5026431;28;20453;-56
2022/10/02 04:29:35;;;;;;;3.03;2.10;;;16.30;99.90;;;16.59;72.88;94999.06;5024280;28;20543;-55
2022/10/02 04:32:12;;;;;;;1.60;1.43;;;16.30;99.90;;;16.57;72.08;95009.03;5027088;28;20803;-56
2022/10/02 04:34:39;;;;;;;7.60;1.90;;;16.30;99.90;;;16.58;72.47;95013.34;5024351;28;20547;-54
2022/10/02 04:37:43;;;;;;;2.67;2.47;;;16.30;99.90;;;16.56;72.30;95018.84;5027615;28;20461;-58
2022/10/02 04:40:24;;;;;;;1.97;1.87;;;16.30;99.90;;;16.56;72.39;95024.13;5026730;28;20472;-55
2022/10/02 04:43:10;;;;;;;3.20;1.70;;;16.30;99.90;;;16.60;72.09;95021.97;5026175;28;20555;-55
2022/10/02 04:46:00;;;;;;;1.70;1.60;;;16.30;99.90;;;16.62;71.98;95036.72;5024512;28;20481;-56
2022/10/02 04:48:55;;;;;;;3.00;1.97;;;16.40;99.90;;;16.69;72.22;95044.00;5026222;28;20461;-55
2022/10/02 04:51:33;;;;;;;1.43;1.33;;;16.40;99.90;;;16.76;71.85;95048.44;5025182;28;20957;-52
2022/10/02 04:54:14;;;;;;;4.57;1.50;;;16.50;99.90;;;16.83;71.63;95056.53;5023905;28;20447;-56
2022/10/02 04:56:59;;;;;;;2.60;1.90;;;16.50;99.90;;;16.94;71.04;95066.81;5027220;28;20453;-54
2022/10/02 04:59:55;;;;;;;2.60;2.07;;;16.70;99.90;;;17.11;70.63;95064.88;5026766;28;20829;-57
2022/10/02 05:02:34;;;;;;;2.37;2.17;;;16.80;99.90;;;17.21;70.67;95064.66;5024847;28;20505;-56
2022/10/02 05:05:15;;;;;;;4.57;2.17;;;16.90;99.90;;;17.28;70.32;95068.25;5026936;28;20835;-56
2022/10/02 05:07:55;;;;;;;4.07;1.80;;;17.00;99.90;;;17.30;70.57;95068.09;5027492;28;20526;-57
2022/10/02 05:10:36;;;;;;;2.87;2.67;;;17.00;99.90;;;17.30;69.67;95062.78;5025121;28;20468;-56
2022/10/02 05:13:12;;;;;;;5.70;2.57;;;17.00;99.90;;;17.28;69.30;95070.09;5024488;28;20481;-56
2022/10/02 05:16:08;;;;;;;6.90;2.10;;;17.00;99.90;;;17.22;69.02;95070.81;5026833;28;20472;-52
2022/10/02 05:18:51;;;;;;;2.60;2.40;;;17.00;99.90;;;17.19;69.34;95077.28;5026418;28;20448;-60
2022/10/02 05:21:36;;;;;;;8.60;1.70;;;16.90;99.90;;;17.19;69.05;95079.94;5018315;28;20841;-55
2022/10/02 05:24:22;;;;;;;2.00;1.80;;;16.90;99.90;;;17.18;69.33;95076.47;5025501;28;20456;-56
2022/10/02 05:27:06;;;;;;;2.30;2.10;;;16.90;99.90;;;17.20;69.19;95074.47;5024130;28;20534;-56
2022/10/02 05:29:55;;;;;;;5.63;2.60;;;16.90;99.90;;;17.24;68.61;95063.47;5021588;28;20950;-58
2022/10/02 05:32:40;;;;;;;2.53;1.60;;;17.00;99.90;;;17.26;68.20;95072.09;5020664;28;20557;-55
2022/10/02 05:35:22;;;;;;;2.43;2.00;;;17.00;99.90;;;17.28;68.62;95064.78;5024575;28;21037;-55
2022/10/02 05:38:02;;;;;;;6.93;2.13;;;17.00;99.90;;;17.30;68.32;95084.84;5025076;28;20464;-57
2022/10/02 05:40:31;;;;;;;1.70;1.60;;;17.00;99.90;;;17.31;68.46;95083.88;5024341;28;20567;-56
2022/10/02 05:43:04;;;;;;;3.57;2.50;;;17.00;99.90;;;17.31;68.01;95083.88;5023816;28;20464;-54
2022/10/02 05:45:35;;;;;;;5.70;2.00;;;17.10;99.90;;;17.32;68.61;95090.00;5025279;28;20472;-58
2022/10/02 05:48:08;;;;;;;2.73;1.83;;;17.10;99.90;;;17.37;68.16;95091.13;5025678;28;20877;-57
2022/10/02 05:50:36;;;;;;;3.53;1.73;;;17.10;99.90;;;17.45;67.44;95108.06;5025129;28;20596;-56
2022/10/02 05:53:08;;;;;;;1.87;1.77;;;17.10;99.90;;;17.58;67.53;95104.78;5025397;28;20497;-56
2022/10/02 05:55:38;;;;;;;3.53;1.93;;;17.20;99.90;;;17.76;67.37;95102.66;5025018;28;20647;-54
2022/10/02 05:58:08;;;;;;;2.20;2.10;;;17.40;99.90;;;17.86;67.10;95105.91;5025844;28;20461;-54
2022/10/02 06:00:39;;;;;;;3.40;3.10;;;17.50;99.90;;;18.03;66.81;95119.09;5022379;28;20928;-57
2022/10/02 06:03:13;;;;;;;3.07;2.17;;;17.70;99.90;;;18.18;66.67;95111.16;5024158;28;21041;-54
2022/10/02 06:05:47;;;;;;;2.13;1.93;;;17.80;99.90;;;18.44;65.38;95116.88;5022486;28;20473;-56
2022/10/02 06:08:20;;;;;;;2.10;2.00;;;18.00;99.90;;;18.77;65.49;95102.38;5025397;28;20987;-58
2022/10/02 06:10:51;;;;;;;3.07;1.90;;;18.30;99.90;;;19.11;63.96;95111.63;5022599;28;20473;-56
2022/10/02 06:13:22;;;;;;;4.13;3.00;;;18.70;99.90;;;19.46;63.68;95115.31;5025393;28;20853;-57
2022/10/02 06:15:51;;;;;;;2.57;2.33;;;18.90;99.90;;;19.79;61.57;95122.03;5025360;28;20473;-56
2022/10/02 06:18:21;;;;;;;4.20;2.40;;;19.20;99.90;;;20.06;60.80;95126.59;5025276;28;20456;-55
2022/10/02 06:20:51;;;;;;;4.07;2.40;;;19.60;99.90;;;20.35;60.56;95126.63;5025478;28;21017;-54
2022/10/02 06:23:22;;;;;;;3.10;2.30;;;19.80;99.60;;;20.66;58.56;95136.94;5022053;28;20984;-55
2022/10/02 06:25:52;;;;;;;2.33;2.20;;;20.10;98.70;;;21.05;59.40;95137.34;5025775;28;20882;-55
2022/10/02 06:28:22;;;;;;;2.93;2.73;;;20.50;99.00;;;21.45;59.10;95137.50;5025306;28;20526;-56
2022/10/02 06:30:52;;;;;;;2.37;2.17;;;20.90;98.40;;;21.85;57.78;95140.31;5023982;28;20994;-54
2022/10/02 06:33:22;;;;;;;3.00;2.80;;;21.20;97.70;;;22.21;56.65;95144.47;5022636;28;20469;-54
2022/10/02 06:36:26;;;;;;;3.73;2.10;;;21.60;97.10;;;22.61;53.53;95152.53;5024183;28;20492;-55
2022/10/02 06:39:14;;;;;;;2.60;1.80;;;21.90;96.00;;;23.04;53.54;95162.78;5017958;28;20533;-55
2022/10/02 06:41:46;;;;;;;2.00;1.90;;;22.40;95.00;;;23.42;54.23;95164.75;5027234;28;20445;-55
2022/10/02 06:44:20;;;;;;;2.43;2.30;;;22.80;94.40;;;23.82;52.64;95179.84;5026255;28;20480;-52
2022/10/02 06:46:54;;;;;;;2.00;1.90;;;23.20;93.50;;;24.25;51.87;95184.56;5027475;28;21068;-53
2022/10/02 06:49:31;;;;;;;2.80;2.60;;;23.60;92.80;;;24.72;50.08;95183.41;5026071;28;20495;-53
2022/10/02 06:52:06;;;;;;;2.33;2.13;;;24.00;90.80;;;25.16;49.84;95178.84;5024733;28;20482;-53
2022/10/02 06:54:50;;;;;;;3.70;2.47;;;24.50;91.40;;;25.59;48.29;95172.56;5027450;28;20571;-56
2022/10/02 06:57:35;;;;;;;2.40;2.20;;;24.90;89.30;;;26.00;46.46;95186.41;5028740;28;20460;-55
2022/10/02 07:00:12;;;;;;;27.57;7.90;;;25.30;86.70;;;26.46;47.35;95193.78;5025198;28;20491;-54
2022/10/02 07:03:19;;;;;;;8.43;4.10;;;25.70;85.50;;;26.96;45.41;95210.66;5024532;28;20833;-54
2022/10/02 07:06:05;;;;;;;2.47;2.37;;;26.20;82.80;;;27.46;45.81;95195.84;5026564;28;20533;-55
2022/10/02 07:08:43;;;;;;;5.23;2.20;;;26.70;81.30;;;27.96;45.32;95210.66;5024928;28;20459;-57
2022/10/02 07:11:15;;;;;;;2.27;1.53;;;27.10;80.80;;;28.47;45.12;95208.88;5024666;28;20463;-56
2022/10/02 07:13:56;;;;;;;1.93;1.83;;;27.60;78.00;;;29.03;42.35;95206.28;5023879;28;20598;-53
2022/10/02 07:16:45;;;;;;;1.57;1.47;;;28.20;71.80;;;29.67;42.12;95197.72;5027060;28;20533;-56
2022/10/02 07:19:45;;;;;;;2.40;1.97;;;28.90;70.20;;;30.30;38.93;95191.13;5022144;28;20472;-56
2022/10/02 07:22:25;;;;;;;3.33;1.80;;;29.50;66.70;;;30.83;38.81;95199.47;5024835;28;20685;-56
2022/10/02 07:25:06;;;;;;;3.33;3.03;;;30.20;60.00;;;31.21;39.05;95206.59;5025375;28;20237;-56
2022/10/02 07:27:38;;;;;;;2.03;1.50;;;30.70;60.60;;;31.55;38.65;95202.75;5023850;28;20204;-54
2022/10/02 07:30:08;;;;;;;5.20;2.97;;;31.10;59.20;;;31.85;38.00;95206.66;5025958;28;20229;-53
2022/10/02 07:32:47;;;;;;;1.58;1.30;;;31.50;57.70;;;32.14;36.79;95202.44;5025583;28;20233;-54
2022/10/02 07:35:40;;;;;;;1.15;1.00;;;31.90;55.60;;;32.35;33.99;95200.59;5026686;28;20257;-55
2022/10/02 07:38:41;;;;;;;1.30;1.20;;;32.20;50.20;;;32.41;34.41;95211.47;5026152;28;20198;-56
2022/10/02 07:41:35;;;;;;;7.25;1.77;;;32.30;49.30;;;32.45;33.87;95204.41;5024930;28;20227;-54
2022/10/02 07:44:11;;;;;;;1.20;1.00;;;32.40;51.00;;;32.41;31.30;95208.75;5025220;28;20216;-55
2022/10/02 07:46:43;;;;;;;1.85;1.20;;;32.40;47.90;;;32.29;33.98;95209.84;5021885;28;20193;-56
2022/10/02 07:49:31;;;;;;;1.83;1.42;;;32.20;48.10;;;32.10;32.69;95223.13;5026035;28;20240;-55
2022/10/02 07:52:02;;;;;;;1.52;1.25;;;32.00;46.50;;;31.92;33.66;95229.81;5023879;28;20236;-56
2022/10/02 07:55:13;;;;;;;1.67;1.58;;;31.90;47.60;;;31.98;33.26;95230.69;5024284;28;20726;-53
2022/10/02 07:57:44;;;;;;;1.38;1.27;;;31.80;48.40;;;32.25;34.28;95240.59;5025914;28;20208;-55
2022/10/02 08:00:16;;;;;;;2.22;1.33;;;31.90;48.90;;;32.47;33.33;95237.63;4985807;28;1153613;-55
2022/10/02 08:02:49;;;;;;;3.38;1.00;;;32.10;48.80;;;32.63;32.90;95238.50;5027637;28;20202;-55
2022/10/02 08:05:20;;;;;;;4.30;1.13;;;32.30;47.60;;;32.62;32.93;95251.28;5026125;28;20706;-56
2022/10/02 08:07:49;;;;;;;1.70;1.50;;;32.30;47.60;;;32.68;33.09;95241.25;5023510;28;20238;-57
2022/10/02 08:10:18;;;;;;;1.35;1.25;;;32.40;47.20;;;32.62;32.79;95229.47;5026818;28;20214;-55
2022/10/02 08:12:50;;;;;;;2.85;1.80;;;32.40;46.70;;;32.46;31.88;95242.25;5027539;28;20259;-56
2022/10/02 08:15:21;;;;;;;6.57;1.70;;;32.20;44.70;;;32.09;31.77;95239.69;5026553;28;20332;-54
2022/10/02 08:17:50;;;;;;;6.43;1.58;;;31.90;45.50;;;31.89;32.18;95240.44;5026851;28;20193;-55
2022/10/02 08:20:23;;;;;;;4.82;1.30;;;31.70;45.60;;;31.85;32.54;95240.13;5027212;28;20221;-57
2022/10/02 08:22:53;;;;;;;1.40;1.30;;;31.50;46.60;;;31.89;32.74;95235.00;5027390;28;20242;-58
2022/10/02 08:25:24;;;;;;;2.65;1.30;;;31.50;46.10;;;31.99;32.86;95243.16;5027222;28;20861;-56
2022/10/02 08:27:56;;;;;;;3.35;1.08;;;31.50;46.50;;;32.12;32.26;95244.63;5033311;28;20249;-56
2022/10/02 08:30:25;;;;;;;0.93;0.82;;;31.60;46.10;;;32.23;31.99;95245.47;5028388;28;20726;-55
2022/10/02 08:32:52;;;;;;;3.17;1.70;;;31.60;46.10;;;32.25;32.10;95248.75;5026589;28;20201;-56
2022/10/02 08:35:20;;;;;;;6.82;1.25;;;31.70;46.20;;;32.28;31.24;95240.03;5026861;28;20784;-55
2022/10/02 08:38:11;;;;;;;3.15;1.20;;;31.70;44.80;;;32.26;29.52;95234.88;5027412;28;20661;-57
2022/10/02 08:41:32;;;;;;;2.90;1.08;;;31.70;42.60;;;32.09;31.26;95237.81;5026814;28;20226;-55
2022/10/02 08:44:42;;;;;;;2.75;1.00;;;31.60;43.00;;;32.09;31.04;95220.66;5027075;28;20700;-54
2022/10/02 08:48:22;;;;;;;2.83;1.15;;;31.50;44.50;;;32.14;30.14;95220.69;5023912;28;20417;-58
2022/10/02 08:51:51;;;;;;;1.67;1.10;;;31.50;42.00;;;32.26;30.09;95218.53;4973591;28;20256;-56
2022/10/02 08:55:13;;;;;;;2.17;1.33;;;31.60;44.00;;;32.43;30.74;95201.97;4987691;28;20256;-57
2022/10/02 08:58:14;;;;;;;3.15;1.42;;;31.80;44.30;;;32.46;28.97;95212.31;5026952;28;20637;-55
2022/10/02 09:00:49;;;;;;;1.57;1.20;;;31.80;41.20;;;32.12;29.33;95215.50;5026727;28;20271;-58
2022/10/02 09:04:04;;;;;;;2.37;2.17;;;31.70;41.90;;;31.88;29.07;95217.81;5026302;28;20293;-57
2022/10/02 09:07:14;;;;;;;1.33;1.23;;;31.40;42.70;;;31.76;29.14;95222.66;5022842;28;20202;-57
2022/10/02 09:10:25;;;;;;;1.17;1.08;;;31.30;42.00;;;31.48;28.87;95216.53;5026270;28;20213;-59
2022/10/02 09:13:39;;;;;;;1.37;1.20;;;31.10;41.70;;;31.26;29.92;95213.94;5025758;28;20209;-54
2022/10/02 09:16:09;;;;;;;3.63;1.40;;;30.80;41.00;;;31.20;30.59;95226.72;5025648;28;20245;-54
2022/10/02 09:18:50;;;;;;;1.50;1.00;;;30.70;43.90;;;31.22;30.90;95219.09;5026801;28;20609;-55
2022/10/02 09:21:18;;;;;;;8.33;1.23;;;30.60;44.20;;;31.01;31.91;95223.56;5026598;28;20198;-56
2022/10/02 09:24:26;;;;;;;2.83;1.07;;;30.40;45.00;;;30.37;32.49;95216.97;5026701;28;20205;-55
2022/10/02 09:27:58;;;;;;;0.90;0.80;;;30.00;44.40;;;29.71;32.78;95205.38;5025850;28;20201;-56
2022/10/02 09:30:38;;;;;;;3.63;1.10;;;29.40;45.50;;;29.25;35.37;95217.25;4941308;28;20247;-56
2022/10/02 09:33:44;;;;;;;1.60;1.50;;;28.90;48.40;;;28.96;35.39;95214.59;4943100;28;20254;-56
2022/10/02 09:37:09;;;;;;;3.23;1.17;;;28.60;49.10;;;28.58;34.89;95207.19;5023838;28;20208;-54
2022/10/02 09:40:31;;;;;;;1.30;1.10;;;28.20;48.10;;;28.08;34.51;95214.13;5025492;28;20304;-54
2022/10/02 09:43:42;;;;;;;2.07;1.20;;;27.80;48.00;;;27.68;35.04;95218.47;5010624;28;20529;-54
2022/10/02 09:46:37;;;;;;;4.60;1.47;;;27.40;48.90;;;27.35;36.61;95201.03;5025656;28;20574;-56
2022/10/02 09:49:50;;;;;;;17.27;1.40;;;27.00;49.70;;;27.11;35.49;95211.00;5026090;28;20505;-54
2022/10/02 09:53:01;;;;;;;1.70;1.47;;;26.80;49.20;;;26.69;35.43;95216.47;5025690;28;20988;-56
2022/10/02 09:55:59;;;;;;;4.00;1.30;;;26.40;49.70;;;26.47;37.31;95206.19;5025625;28;21024;-55
2022/10/02 09:59:03;;;;;;;4.40;1.33;;;26.10;50.90;;;26.32;37.60;95208.53;5022315;28;20582;-54
2022/10/02 10:01:40;;;;;;;1.30;1.20;;;25.90;51.10;;;26.10;36.74;95211.75;5025181;28;20452;-55
2022/10/02 10:04:43;;;;;;;2.10;1.17;;;25.70;50.50;;;25.93;37.92;95200.75;5025780;28;20475;-56
2022/10/02 10:08:02;;;;;;;10.87;1.40;;;25.60;51.80;;;25.87;37.67;95206.22;5024453;28;20543;-56
2022/10/02 10:10:50;;;;;;;2.17;0.90;;;25.40;51.70;;;25.76;37.92;95207.81;5024513;28;20460;-55
2022/10/02 10:13:44;;;;;;;2.50;1.30;;;25.30;51.60;;;25.68;38.77;95200.03;5022746;28;20463;-55
2022/10/02 10:17:04;;;;;;;1.40;1.20;;;25.20;52.40;;;25.63;38.06;95199.91;5022865;28;20468;-53
2022/10/02 10:20:07;;;;;;;3.77;1.50;;;25.20;52.10;;;25.47;37.77;95212.94;4998628;28;20534;-55
2022/10/02 10:23:04;;;;;;;1.20;1.03;;;25.10;52.40;;;25.41;38.48;95203.88;5004181;28;20592;-57
2022/10/02 10:25:51;;;;;;;4.70;1.30;;;25.00;52.60;;;25.41;38.26;95193.09;5023430;28;20473;-56
2022/10/02 10:29:08;;;;;;;6.73;2.27;;;24.90;53.10;;;25.37;38.29;95202.66;5024900;28;20517;-56
2022/10/02 10:32:22;;;;;;;8.30;1.30;;;24.90;52.70;;;25.30;37.36;95201.94;5023487;28;20875;-55
2022/10/02 10:35:15;;;;;;;2.40;1.20;;;24.80;51.80;;;25.18;37.72;95209.06;4986360;28;20853;-55
2022/10/02 10:38:33;;;;;;;1.43;1.27;;;24.70;52.40;;;25.17;38.22;95204.72;5020482;28;20621;-55
2022/10/02 10:41:43;;;;;;;4.50;1.40;;;24.70;53.00;;;25.16;38.45;95194.97;5002091;28;20537;-56
2022/10/02 10:44:50;;;;;;;4.63;1.23;;;24.70;52.90;;;25.14;38.33;95202.47;5005617;28;20939;-55
2022/10/02 10:47:37;;;;;;;2.10;1.20;;;24.70;52.90;;;25.12;37.74;95188.41;5021544;28;20895;-56
2022/10/02 10:50:33;;;;;;;1.73;1.20;;;24.70;51.90;;;25.02;37.21;95187.06;5025619;28;20883;-55
2022/10/02 10:53:46;;;;;;;3.23;1.00;;;24.60;51.70;;;24.85;36.75;95181.44;5022639;28;20445;-55
2022/10/02 10:56:35;;;;;;;1.07;0.97;;;24.50;51.00;;;24.70;38.05;95184.44;5002649;28;20530;-58
2022/10/02 10:59:52;;;;;;;3.07;1.00;;;24.30;51.70;;;24.63;37.70;95185.56;5024561;28;20788;-55
2022/10/02 11:03:03;;;;;;;1.23;1.13;;;24.20;51.70;;;24.59;37.93;95187.88;5024554;28;20996;-54
2022/10/02 11:06:24;;;;;;;1.43;1.33;;;24.20;52.60;;;24.54;37.67;95187.69;5024629;28;20460;-56
2022/10/02 11:09:52;;;;;;;5.37;1.40;;;24.10;52.20;;;24.46;38.19;95190.63;5023274;28;20556;-56
2022/10/02 11:13:18;;;;;;;2.07;1.00;;;24.00;52.40;;;24.45;37.71;95194.38;5025049;28;21042;-56
2022/10/02 11:16:11;;;;;;;4.50;1.00;;;24.00;52.40;;;24.39;38.80;95195.25;5023404;28;20483;-55
2022/10/02 11:19:04;;;;;;;6.73;1.20;;;24.00;52.40;;;24.34;37.13;95193.22;5023937;28;20471;-55